createdAt,value
2022-09-28T04:00:35.787Z,2.10
2022-09-28T04:05:35.652Z,6.80
2022-09-28T04:10:35.601Z,7.20
2022-09-28T04:15:43.613Z,7.30
2022-09-28T04:20:35.493Z,7.60
2022-09-28T04:25:35.441Z,8.20
2022-09-28T04:30:35.384Z,8.10
2022-09-28T04:35:35.356Z,8.80
2022-09-28T04:40:35.329Z,8.20
2022-09-28T04:45:35.249Z,7.90
2022-09-28T04:50:35.157Z,8.80
2022-09-28T04:55:35.142Z,8.90
2022-09-28T05:00:35.082Z,8.60
2022-09-28T05:05:34.994Z,9.60
2022-09-28T05:10:34.954Z,9.80
2022-09-28T05:15:34.923Z,9.60
2022-09-28T05:20:34.836Z,9.10
2022-09-28T05:25:34.797Z,9.70
2022-09-28T05:30:34.740Z,9.70
2022-09-28T05:35:34.708Z,9.70
2022-09-28T05:40:34.690Z,10.10
2022-09-28T05:45:34.657Z,10.60
2022-09-28T05:50:34.523Z,10.20
2022-09-28T05:55:34.488Z,10.00
2022-09-28T06:00:34.418Z,9.30
2022-09-28T06:05:34.363Z,9.30
2022-09-28T06:10:34.309Z,9.20
2022-09-28T06:15:34.277Z,8.30
2022-09-28T06:20:34.202Z,8.60
2022-09-28T06:25:34.150Z,7.80
2022-09-28T06:30:34.154Z,8.50
2022-09-28T06:35:34.074Z,8.90
2022-09-28T06:40:34.043Z,7.60
2022-09-28T06:45:33.941Z,7.40
2022-09-28T06:50:33.882Z,6.80
2022-09-28T06:55:33.844Z,6.60
2022-09-28T07:00:33.767Z,6.80
2022-09-28T07:05:33.710Z,6.50
2022-09-28T07:10:33.660Z,6.20
2022-09-28T07:15:33.634Z,6.10
2022-09-28T07:20:38.606Z,5.90
2022-09-28T07:25:34.500Z,5.80
2022-09-28T07:30:33.540Z,6.00
2022-09-28T07:35:33.399Z,5.60
2022-09-28T07:40:33.413Z,5.80
2022-09-28T07:45:33.335Z,5.00
2022-09-28T07:50:33.222Z,5.40
2022-09-28T07:55:33.215Z,6.30
2022-09-28T08:00:34.316Z,5.50
2022-09-28T08:05:33.068Z,5.00
2022-09-28T08:10:33.017Z,5.40
2022-09-28T08:15:32.976Z,5.20
2022-09-28T08:20:32.918Z,5.10
2022-09-28T08:25:32.864Z,5.40
2022-09-28T08:30:32.904Z,5.10
2022-09-28T08:35:32.779Z,4.60
2022-09-28T08:40:32.721Z,4.60
2022-09-28T08:45:32.646Z,4.20
2022-09-28T08:50:32.942Z,4.50
2022-09-28T08:55:32.550Z,4.30
2022-09-28T09:00:32.486Z,3.70
2022-09-28T09:05:32.432Z,4.70
2022-09-28T09:10:32.378Z,4.40
2022-09-28T09:15:32.375Z,4.50
2022-09-28T09:20:32.271Z,4.30
2022-09-28T09:25:36.522Z,4.60
2022-09-28T09:30:33.222Z,4.70
2022-09-28T09:35:32.119Z,4.40
2022-09-28T09:40:32.097Z,4.20
2022-09-28T09:45:32.022Z,4.20
2022-09-28T09:50:31.952Z,4.30
2022-09-28T09:55:31.926Z,3.70
2022-09-28T10:00:31.864Z,3.70
2022-09-28T10:05:31.793Z,3.40
2022-09-28T10:10:31.741Z,3.40
2022-09-28T10:15:38.897Z,2.80
2022-09-28T10:20:31.650Z,2.50
2022-09-28T10:25:31.571Z,2.10
2022-09-28T10:30:31.587Z,2.80
2022-09-28T10:35:31.516Z,2.00
2022-09-28T10:40:31.455Z,1.90
2022-09-28T10:45:31.374Z,1.70
2022-09-28T10:50:31.317Z,1.60
2022-09-28T10:55:31.263Z,1.70
2022-09-28T11:00:31.205Z,1.60
2022-09-28T11:05:31.161Z,1.60
2022-09-28T11:10:31.108Z,1.50
2022-09-28T11:15:31.054Z,1.30
2022-09-28T11:20:30.985Z,1.70
2022-09-28T11:25:30.927Z,1.70
2022-09-28T11:30:30.934Z,1.80
2022-09-28T11:35:30.844Z,1.70
2022-09-28T11:40:30.835Z,1.70
2022-09-28T11:45:30.711Z,2.10
2022-09-28T11:50:30.657Z,1.80
2022-09-28T11:55:30.609Z,1.60
2022-09-28T12:00:30.549Z,1.70
2022-09-28T12:05:30.486Z,1.80
2022-09-28T12:10:30.431Z,1.80
2022-09-28T12:15:38.215Z,1.90
2022-09-28T12:20:31.342Z,1.90
2022-09-28T12:25:30.267Z,1.80
2022-09-28T12:30:30.294Z,3.10
2022-09-28T12:35:30.284Z,2.10
2022-09-28T12:40:30.171Z,2.20
2022-09-28T12:45:38.481Z,2.50
2022-09-28T12:50:38.562Z,2.90
2022-09-28T12:55:30.961Z,2.60
2022-09-28T13:00:29.891Z,2.80
2022-09-28T13:05:29.846Z,3.10
2022-09-28T13:10:29.858Z,2.30
2022-09-28T13:15:29.769Z,2.20
2022-09-28T13:20:29.667Z,2.60
2022-09-28T13:25:29.620Z,2.20
2022-09-28T13:30:29.608Z,2.10
2022-09-28T13:35:29.522Z,2.30
2022-09-28T13:40:29.507Z,2.40
2022-09-28T13:45:29.385Z,2.10
2022-09-28T13:50:29.338Z,2.40
2022-09-28T13:55:29.310Z,2.10
2022-09-28T14:00:29.218Z,1.70
2022-09-28T14:05:29.174Z,1.20
2022-09-28T14:10:29.126Z,1.30
2022-09-28T14:15:29.372Z,0.80
2022-09-28T14:20:29.011Z,0.80
2022-09-28T14:25:28.969Z,0.80
2022-09-28T14:30:28.888Z,0.70
2022-09-28T14:35:28.874Z,0.70
2022-09-28T14:40:28.953Z,0.90
2022-09-28T14:45:28.756Z,1.00
2022-09-28T14:50:28.725Z,1.00
2022-09-28T14:55:28.656Z,1.20
2022-09-28T15:00:28.566Z,1.10
2022-09-28T15:05:28.647Z,0.90
2022-09-28T15:10:28.501Z,0.90
2022-09-28T15:15:28.487Z,0.80
2022-09-28T15:20:28.361Z,0.80
2022-09-28T15:25:28.302Z,0.60
2022-09-28T15:30:28.271Z,1.00
2022-09-28T15:35:28.202Z,0.50
2022-09-28T15:40:28.211Z,0.80
2022-09-28T15:45:28.069Z,1.00
2022-09-28T15:50:28.150Z,1.00
2022-09-28T15:55:28.264Z,0.90
2022-09-28T16:00:27.915Z,1.30
2022-09-28T16:05:27.870Z,1.30
2022-09-28T16:10:27.801Z,1.40
2022-09-28T16:15:27.950Z,1.40
2022-09-28T16:20:34.925Z,1.20
2022-09-28T16:25:27.628Z,0.90
2022-09-28T16:30:27.579Z,1.00
2022-09-28T16:35:27.566Z,1.20
2022-09-28T16:40:27.522Z,1.00
2022-09-28T16:45:27.439Z,1.00
2022-09-28T16:50:27.377Z,1.40
2022-09-28T16:55:39.967Z,1.50
2022-09-28T17:00:28.269Z,2.00
2022-09-28T17:05:27.214Z,1.70
2022-09-28T17:10:27.158Z,2.30
2022-09-28T17:15:27.176Z,1.80
2022-09-28T17:20:27.049Z,1.80
2022-09-28T17:25:26.996Z,2.10
2022-09-28T17:30:26.949Z,2.00
2022-09-28T17:35:26.904Z,2.30
2022-09-28T17:40:26.905Z,2.20
2022-09-28T17:45:26.788Z,2.40
2022-09-28T17:50:26.716Z,3.30
2022-09-28T17:55:26.726Z,3.10
2022-09-28T18:00:26.635Z,2.90
2022-09-28T18:05:26.556Z,3.10
2022-09-28T18:10:26.522Z,3.00
2022-09-28T18:15:26.488Z,3.50
2022-09-28T18:20:26.401Z,3.80
2022-09-28T18:25:26.354Z,4.40
2022-09-28T18:30:26.313Z,4.10
2022-09-28T18:35:26.278Z,4.00
2022-09-28T18:40:26.245Z,4.20
2022-09-28T18:45:26.149Z,4.60
2022-09-28T18:50:26.076Z,5.30
2022-09-28T18:55:26.051Z,8.00
2022-09-28T19:00:25.997Z,5.40
2022-09-28T19:05:25.907Z,4.50
2022-09-28T19:10:25.865Z,4.70
2022-09-28T19:15:25.844Z,4.60
2022-09-28T19:20:25.754Z,4.40
2022-09-28T19:25:25.708Z,5.00
2022-09-28T19:30:25.661Z,5.30
2022-09-28T19:35:25.610Z,5.70
2022-09-28T19:40:25.600Z,5.20
2022-09-28T19:45:25.495Z,5.30
2022-09-28T19:50:25.430Z,5.80
2022-09-28T19:55:25.410Z,5.20
2022-09-28T20:00:25.345Z,5.70
2022-09-28T20:05:25.267Z,5.50
2022-09-28T20:10:25.225Z,6.00
2022-09-28T20:15:25.298Z,5.90
2022-09-28T20:20:25.109Z,5.30
2022-09-28T20:25:25.074Z,5.00
2022-09-28T20:30:25.013Z,5.50
2022-09-28T20:35:32.601Z,5.40
2022-09-28T20:40:25.967Z,5.80
2022-09-28T20:45:24.843Z,5.60
2022-09-28T20:50:24.798Z,5.70
2022-09-28T20:55:24.777Z,5.80
2022-09-28T21:00:24.682Z,5.90
2022-09-28T21:05:24.638Z,5.70
2022-09-28T21:10:24.595Z,6.00
2022-09-28T21:15:24.630Z,5.90
2022-09-28T21:20:24.475Z,6.10
2022-09-28T21:25:24.428Z,6.20
2022-09-28T21:30:24.359Z,5.90
2022-09-28T21:35:24.335Z,5.80
2022-09-28T21:40:24.364Z,5.70
2022-09-28T21:45:24.217Z,5.80
2022-09-28T21:50:24.163Z,5.20
2022-09-28T21:55:24.121Z,5.80
2022-09-28T22:00:24.050Z,5.40
2022-09-28T22:05:24.112Z,6.00
2022-09-28T22:10:23.930Z,5.50
2022-09-28T22:15:23.904Z,5.50
2022-09-28T22:20:30.881Z,5.40
2022-09-28T22:25:23.764Z,5.70
2022-09-28T22:30:23.729Z,5.60
2022-09-28T22:35:23.700Z,5.80
2022-09-28T22:40:23.690Z,5.20
2022-09-28T22:45:23.567Z,5.40
2022-09-28T22:50:23.513Z,5.60
2022-09-28T22:55:23.466Z,6.10
2022-09-28T23:00:23.409Z,6.00
2022-09-28T23:05:23.446Z,6.40
2022-09-28T23:10:23.292Z,6.40
2022-09-28T23:15:23.265Z,6.30
2022-09-28T23:20:23.206Z,6.40
2022-09-28T23:25:23.127Z,6.00
